createdAt,value
2018-09-26T00:00:41.567Z,1001.23
2018-09-26T00:01:41.525Z,1001.21
2018-09-26T00:02:41.481Z,1001.18
2018-09-26T00:03:41.438Z,1001.17
2018-09-26T00:04:41.399Z,1001.15
2018-09-26T00:05:41.354Z,1001.17
2018-09-26T00:06:41.323Z,1001.18
2018-09-26T00:07:41.279Z,1001.20
2018-09-26T00:08:41.238Z,1001.18
2018-09-26T00:09:41.195Z,1001.15
2018-09-26T00:10:41.159Z,1001.13
2018-09-26T00:11:41.120Z,1001.06
2018-09-26T00:12:41.084Z,1001.12
2018-09-26T00:13:41.055Z,1001.11
2018-09-26T00:14:41.005Z,1001.13
2018-09-26T00:15:40.965Z,1001.16
2018-09-26T00:16:40.921Z,1001.17
2018-09-26T00:17:40.879Z,1001.14
2018-09-26T00:18:40.839Z,1001.19
2018-09-26T00:19:40.803Z,1001.19
2018-09-26T00:20:40.768Z,1001.16
2018-09-26T00:21:40.731Z,1001.24
2018-09-26T00:22:40.679Z,1001.30
2018-09-26T00:23:40.641Z,1001.32
2018-09-26T00:24:40.613Z,1001.32
2018-09-26T00:25:40.563Z,1001.35
2018-09-26T00:26:40.526Z,1001.34
2018-09-26T00:27:40.490Z,1001.37
2018-09-26T00:28:40.446Z,1001.36
2018-09-26T00:29:40.398Z,1001.34
2018-09-26T00:30:40.359Z,1001.37
2018-09-26T00:31:40.320Z,1001.34
2018-09-26T00:32:40.290Z,1001.31
2018-09-26T00:33:40.246Z,1001.33
2018-09-26T00:34:40.213Z,1001.34
2018-09-26T00:35:40.208Z,1001.30
2018-09-26T00:36:40.123Z,1001.29
2018-09-26T00:37:40.085Z,1001.32
2018-09-26T00:38:40.048Z,1001.27
2018-09-26T00:39:40.013Z,1001.29
2018-09-26T00:40:39.971Z,1001.28
2018-09-26T00:41:39.923Z,1001.30
2018-09-26T00:42:39.889Z,1001.25
2018-09-26T00:43:39.843Z,1001.24
2018-09-26T00:44:39.815Z,1001.20
2018-09-26T00:45:39.768Z,1001.23
2018-09-26T00:46:39.742Z,1001.17
2018-09-26T00:47:39.689Z,1001.20
2018-09-26T00:48:39.648Z,1001.20
2018-09-26T00:49:39.606Z,1001.17
2018-09-26T00:50:39.564Z,1001.16
2018-09-26T00:51:39.539Z,1001.10
2018-09-26T00:52:39.497Z,1001.10
2018-09-26T00:53:39.451Z,1001.08
2018-09-26T00:54:39.407Z,1001.08
2018-09-26T00:55:39.369Z,1001.09
2018-09-26T00:56:39.330Z,1001.10
2018-09-26T00:57:39.295Z,1001.16
2018-09-26T00:58:39.255Z,1001.09
2018-09-26T00:59:39.212Z,1001.16
2018-09-26T01:00:39.169Z,1001.19
2018-09-26T01:01:39.125Z,1001.20
2018-09-26T01:02:39.091Z,1001.21
2018-09-26T01:03:39.048Z,1001.22
2018-09-26T01:04:39.010Z,1001.24
2018-09-26T01:05:38.975Z,1001.24
2018-09-26T01:06:38.933Z,1001.25
2018-09-26T01:07:38.903Z,1001.24
2018-09-26T01:08:38.849Z,1001.25
2018-09-26T01:09:38.806Z,1001.27
2018-09-26T01:10:38.772Z,1001.26
2018-09-26T01:11:38.735Z,1001.26
2018-09-26T01:12:38.691Z,1001.22
2018-09-26T01:13:38.649Z,1001.22
2018-09-26T01:14:38.612Z,1001.22
2018-09-26T01:15:38.570Z,1001.22
2018-09-26T01:16:38.535Z,1001.19
2018-09-26T01:17:38.498Z,1001.24
2018-09-26T01:18:38.454Z,1001.20
2018-09-26T01:19:38.414Z,1001.20
2018-09-26T01:20:38.372Z,1001.23
2018-09-26T01:21:38.344Z,1001.23
2018-09-26T01:22:38.292Z,1001.25
2018-09-26T01:23:38.258Z,1001.29
2018-09-26T01:24:38.217Z,1001.27
2018-09-26T01:25:38.176Z,1001.27
2018-09-26T01:26:38.133Z,1001.18
2018-09-26T01:27:38.100Z,1001.21
2018-09-26T01:28:38.059Z,1001.18
2018-09-26T01:29:38.018Z,1001.11
2018-09-26T01:30:37.977Z,1001.09
2018-09-26T01:31:37.933Z,1001.02
2018-09-26T01:32:37.894Z,1001.03
2018-09-26T01:33:37.857Z,1000.99
2018-09-26T01:34:37.816Z,1000.92
2018-09-26T01:35:37.774Z,1000.92
2018-09-26T01:36:37.739Z,1000.83
2018-09-26T01:37:37.699Z,1000.78
2018-09-26T01:38:37.661Z,1000.69
2018-09-26T01:39:37.617Z,1000.67
2018-09-26T01:40:37.574Z,1000.66
2018-09-26T01:41:37.538Z,1000.63
2018-09-26T01:42:37.498Z,1000.61
2018-09-26T01:43:37.457Z,1000.59
2018-09-26T01:44:37.416Z,1000.59
2018-09-26T01:45:37.373Z,1000.55
2018-09-26T01:46:37.333Z,1000.53
2018-09-26T01:47:37.294Z,1000.51
2018-09-26T01:48:37.258Z,1000.45
2018-09-26T01:49:37.218Z,1000.45
2018-09-26T01:50:37.183Z,1000.44
2018-09-26T01:51:37.137Z,1000.39
2018-09-26T01:52:37.096Z,1000.38
2018-09-26T01:53:37.053Z,1000.38
2018-09-26T01:54:37.013Z,1000.37
2018-09-26T01:55:36.977Z,1000.36
2018-09-26T01:56:36.938Z,1000.35
2018-09-26T01:57:36.899Z,1000.34
2018-09-26T01:58:36.853Z,1000.34
2018-09-26T01:59:36.816Z,1000.32
2018-09-26T02:00:36.777Z,1000.34
2018-09-26T02:01:36.738Z,1000.33
2018-09-26T02:02:36.698Z,1000.34
2018-09-26T02:03:36.659Z,1000.29
2018-09-26T02:04:36.620Z,1000.28
2018-09-26T02:05:36.577Z,1000.24
2018-09-26T02:06:36.539Z,1000.18
2018-09-26T02:07:36.498Z,1000.19
2018-09-26T02:08:36.456Z,1000.15
2018-09-26T02:09:36.414Z,1000.18
2018-09-26T02:10:36.376Z,1000.16
2018-09-26T02:11:36.336Z,1000.19
2018-09-26T02:12:36.300Z,1000.17
2018-09-26T02:13:36.260Z,1000.14
2018-09-26T02:14:36.245Z,1000.11
2018-09-26T02:15:36.179Z,1000.14
2018-09-26T02:16:36.139Z,1000.13
2018-09-26T02:17:36.100Z,1000.16
2018-09-26T02:18:36.060Z,1000.16
2018-09-26T02:19:36.017Z,1000.20
2018-09-26T02:20:35.979Z,1000.23
2018-09-26T02:21:35.934Z,1000.16
2018-09-26T02:22:35.899Z,1000.24
2018-09-26T02:23:35.892Z,1000.27
2018-09-26T02:24:35.817Z,1000.34
2018-09-26T02:25:35.783Z,1000.36
2018-09-26T02:26:35.740Z,1000.43
2018-09-26T02:27:35.697Z,1000.43
2018-09-26T02:28:35.658Z,1000.48
2018-09-26T02:29:35.613Z,1000.47
2018-09-26T02:30:35.598Z,1000.50
2018-09-26T02:31:35.538Z,1000.53
2018-09-26T02:32:35.502Z,1000.52
2018-09-26T02:33:35.455Z,1000.52
2018-09-26T02:34:35.416Z,1000.50
2018-09-26T02:35:35.377Z,1000.51
2018-09-26T02:36:35.347Z,1000.51
2018-09-26T02:37:35.301Z,1000.53
2018-09-26T02:38:35.260Z,1000.58
2018-09-26T02:39:35.223Z,1000.60
2018-09-26T02:40:35.178Z,1000.63
2018-09-26T02:41:35.137Z,1000.59
2018-09-26T02:42:35.095Z,1000.59
2018-09-26T02:43:35.057Z,1000.62
2018-09-26T02:44:35.020Z,1000.61
2018-09-26T02:45:34.980Z,1000.61
2018-09-26T02:46:34.944Z,1000.66
2018-09-26T02:47:34.901Z,1000.66
2018-09-26T02:48:34.860Z,1000.63
2018-09-26T02:49:34.822Z,1000.66
2018-09-26T02:50:34.808Z,1000.66
2018-09-26T02:51:34.741Z,1000.66
2018-09-26T02:52:34.703Z,1000.65
2018-09-26T02:53:34.656Z,1000.64
2018-09-26T02:54:34.670Z,1000.69
2018-09-26T02:55:34.583Z,1000.67
2018-09-26T02:56:34.541Z,1000.61
2018-09-26T02:57:34.506Z,1000.60
2018-09-26T02:58:34.465Z,1000.56
2018-09-26T02:59:34.422Z,1000.55
2018-09-26T03:00:34.381Z,1000.54
2018-09-26T03:01:34.339Z,1000.52
2018-09-26T03:02:34.305Z,1000.48
2018-09-26T03:03:34.265Z,1000.51
2018-09-26T03:04:34.220Z,1000.49
2018-09-26T03:05:34.180Z,1000.51
2018-09-26T03:06:34.139Z,1000.50
2018-09-26T03:07:34.106Z,1000.50
2018-09-26T03:08:34.068Z,1000.50
2018-09-26T03:09:34.024Z,1000.49
2018-09-26T03:10:33.985Z,1000.50
2018-09-26T03:11:33.944Z,1000.49
2018-09-26T03:12:33.904Z,1000.51
2018-09-26T03:13:33.861Z,1000.49
2018-09-26T03:14:33.824Z,1000.50
2018-09-26T03:15:33.785Z,1000.48
2018-09-26T03:16:33.745Z,1000.45
2018-09-26T03:17:33.775Z,1000.48
2018-09-26T03:18:33.663Z,1000.42
2018-09-26T03:19:33.632Z,1000.45
2018-09-26T03:20:33.586Z,1000.46
2018-09-26T03:21:33.551Z,1000.53
2018-09-26T03:22:33.509Z,1000.52
2018-09-26T03:23:33.468Z,1000.55
2018-09-26T03:24:33.424Z,1000.57
2018-09-26T03:25:33.381Z,1000.54
2018-09-26T03:26:33.340Z,1000.55
2018-09-26T03:27:33.309Z,1000.48
2018-09-26T03:28:33.264Z,1000.42
2018-09-26T03:29:33.226Z,1000.42
2018-09-26T03:30:33.187Z,1000.39
2018-09-26T03:31:33.212Z,1000.39
2018-09-26T03:32:33.104Z,1000.35
2018-09-26T03:33:33.069Z,1000.37
2018-09-26T03:34:33.030Z,1000.33
2018-09-26T03:35:32.986Z,1000.26
2018-09-26T03:36:32.953Z,1000.23
2018-09-26T03:37:32.901Z,1000.16
2018-09-26T03:38:32.863Z,1000.13
2018-09-26T03:39:32.827Z,1000.13
2018-09-26T03:40:32.790Z,1000.16
2018-09-26T03:41:32.759Z,1000.13
2018-09-26T03:42:32.708Z,1000.13
2018-09-26T03:43:32.671Z,1000.21
2018-09-26T03:44:32.626Z,1000.25
2018-09-26T03:45:32.593Z,1000.27
2018-09-26T03:46:32.542Z,1000.28
2018-09-26T03:47:32.507Z,1000.29
2018-09-26T03:48:32.473Z,1000.26
2018-09-26T03:49:32.430Z,1000.27
2018-09-26T03:50:32.383Z,1000.24
2018-09-26T03:51:32.346Z,1000.27
2018-09-26T03:52:32.309Z,1000.28
2018-09-26T04:06:38.066Z,1000.23
2018-09-26T04:07:37.973Z,1000.23
2018-09-26T04:08:37.925Z,1000.23
2018-09-26T04:09:37.883Z,1000.21
2018-09-26T04:10:37.842Z,1000.22
2018-09-26T04:11:37.801Z,1000.22
2018-09-26T04:12:37.829Z,1000.18
2018-09-26T04:13:37.708Z,1000.15
2018-09-26T04:14:37.674Z,1000.10
2018-09-26T04:15:37.669Z,1000.10
2018-09-26T04:16:37.588Z,1000.12
2018-09-26T04:17:37.557Z,1000.12
2018-09-26T04:18:37.501Z,1000.10
2018-09-26T04:19:37.464Z,1000.12
2018-09-26T04:20:37.422Z,1000.08
2018-09-26T04:21:37.378Z,1000.09
2018-09-26T04:22:37.345Z,1000.05
2018-09-26T04:23:37.308Z,1000.09
2018-09-26T04:24:37.274Z,1000.08
2018-09-26T04:25:37.223Z,1000.05
2018-09-26T04:26:37.313Z,1000.11
2018-09-26T04:27:37.192Z,1000.10
2018-09-26T04:28:37.100Z,1000.10
2018-09-26T04:29:37.060Z,1000.12
2018-09-26T04:30:37.023Z,1000.10
2018-09-26T04:31:36.981Z,1000.15
2018-09-26T04:32:37.015Z,1000.16
2018-09-26T04:33:36.979Z,1000.18
2018-09-26T04:34:36.860Z,1000.21
2018-09-26T04:35:36.821Z,1000.25
2018-09-26T04:36:36.776Z,1000.28
2018-09-26T04:37:36.740Z,1000.33
2018-09-26T04:38:36.759Z,1000.34
2018-09-26T04:39:36.659Z,1000.38
2018-09-26T04:40:36.615Z,1000.39
2018-09-26T04:41:36.572Z,1000.40
2018-09-26T04:42:36.537Z,1000.42
2018-09-26T04:43:36.494Z,1000.42
2018-09-26T04:44:36.452Z,1000.48
2018-09-26T04:45:36.411Z,1000.46
2018-09-26T04:46:36.378Z,1000.50
2018-09-26T04:47:36.335Z,1000.52
2018-09-26T04:48:36.292Z,1000.51
2018-09-26T04:49:36.254Z,1000.53
2018-09-26T04:50:36.206Z,1000.55
2018-09-26T04:51:36.172Z,1000.52
2018-09-26T04:52:36.136Z,1000.55
2018-09-26T04:53:36.087Z,1000.55
2018-09-26T04:54:36.054Z,1000.53
2018-09-26T04:55:36.016Z,1000.51
2018-09-26T04:56:35.978Z,1000.44
2018-09-26T04:57:35.937Z,1000.43
2018-09-26T04:58:35.887Z,1000.46
2018-09-26T04:59:35.851Z,1000.47
2018-09-26T05:00:35.812Z,1000.54
2018-09-26T05:01:35.775Z,1000.57
2018-09-26T05:02:35.729Z,1000.54
2018-09-26T05:03:35.688Z,1000.52
2018-09-26T05:04:35.647Z,1000.49
2018-09-26T05:05:35.608Z,1000.49
2018-09-26T05:06:35.570Z,1000.49
2018-09-26T05:07:35.530Z,1000.49
2018-09-26T05:08:35.487Z,1000.55
2018-09-26T05:09:35.449Z,1000.55
2018-09-26T05:10:35.402Z,1000.56
2018-09-26T05:11:36.953Z,1000.60
2018-09-26T05:12:35.326Z,1000.60
2018-09-26T05:13:35.287Z,1000.59
2018-09-26T05:14:35.284Z,1000.54
2018-09-26T05:15:35.207Z,1000.51
2018-09-26T05:16:35.170Z,1000.50
2018-09-26T05:17:35.124Z,1000.45
2018-09-26T05:18:35.094Z,1000.47
2018-09-26T05:19:35.052Z,1000.47
2018-09-26T05:20:35.005Z,1000.49
2018-09-26T05:21:34.969Z,1000.48
2018-09-26T05:22:34.922Z,1000.46
2018-09-26T05:23:34.886Z,1000.45
2018-09-26T05:24:34.846Z,1000.46
2018-09-26T05:25:34.804Z,1000.41
2018-09-26T05:26:34.787Z,1000.40
2018-09-26T05:27:34.726Z,1000.38
2018-09-26T05:28:34.689Z,1000.40
2018-09-26T05:29:34.651Z,1000.42
2018-09-26T05:30:34.600Z,1000.41
2018-09-26T05:31:34.567Z,1000.44
2018-09-26T05:32:34.545Z,1000.36
2018-09-26T05:33:34.486Z,1000.37
2018-09-26T05:34:34.440Z,1000.38
2018-09-26T05:35:34.406Z,1000.38
2018-09-26T05:36:34.363Z,1000.37
2018-09-26T05:37:34.319Z,1000.41
2018-09-26T05:38:34.288Z,1000.40
2018-09-26T05:39:34.256Z,1000.37
2018-09-26T05:40:34.214Z,1000.41
2018-09-26T05:41:34.175Z,1000.37
2018-09-26T05:42:34.123Z,1000.40
2018-09-26T05:43:34.081Z,1000.38
2018-09-26T05:44:34.040Z,1000.40
2018-09-26T05:45:34.000Z,1000.41
2018-09-26T05:46:33.965Z,1000.40
2018-09-26T05:47:33.924Z,1000.40
2018-09-26T05:48:33.882Z,1000.35
2018-09-26T05:49:33.837Z,1000.37
2018-09-26T05:50:33.803Z,1000.40
2018-09-26T05:51:33.761Z,1000.41
2018-09-26T05:52:33.721Z,1000.42
2018-09-26T05:53:33.775Z,1000.45
2018-09-26T05:54:33.637Z,1000.46
2018-09-26T05:55:33.599Z,1000.48
2018-09-26T05:56:33.557Z,1000.43
2018-09-26T05:57:33.523Z,1000.46
2018-09-26T05:58:33.483Z,1000.47
2018-09-26T05:59:33.492Z,1000.46
2018-09-26T06:00:33.400Z,1000.49
2018-09-26T06:01:33.363Z,1000.53
2018-09-26T06:02:33.322Z,1000.57
2018-09-26T06:03:33.284Z,1000.51
2018-09-26T06:04:33.246Z,1000.50
2018-09-26T06:05:33.243Z,1000.49
2018-09-26T06:06:33.157Z,1000.46
2018-09-26T06:07:33.117Z,1000.46
2018-09-26T06:08:33.080Z,1000.49
2018-09-26T06:09:33.034Z,1000.47
2018-09-26T06:10:33.003Z,1000.52
2018-09-26T06:11:32.958Z,1000.52
2018-09-26T06:12:32.919Z,1000.51
2018-09-26T06:13:32.884Z,1000.48
2018-09-26T06:14:32.840Z,1000.40
2018-09-26T06:15:32.797Z,1000.43
2018-09-26T06:16:32.755Z,1000.43
2018-09-26T06:17:32.713Z,1000.45
2018-09-26T06:18:32.682Z,1000.47
2018-09-26T06:19:32.640Z,1000.46
2018-09-26T06:20:32.596Z,1000.45
2018-09-26T06:21:32.554Z,1000.46
2018-09-26T06:22:32.519Z,1000.43
2018-09-26T06:23:32.495Z,1000.40
2018-09-26T06:24:32.458Z,1000.39
2018-09-26T06:25:32.402Z,1000.38
2018-09-26T06:26:32.354Z,1000.38
2018-09-26T06:27:32.315Z,1000.38
2018-09-26T06:28:32.274Z,1000.35
2018-09-26T06:29:32.240Z,1000.41
2018-09-26T06:30:32.203Z,1000.34
2018-09-26T06:31:32.161Z,1000.36
2018-09-26T06:32:32.120Z,1000.37
2018-09-26T06:33:32.081Z,1000.36
2018-09-26T06:34:32.039Z,1000.41
2018-09-26T06:35:31.996Z,1000.40
2018-09-26T06:36:31.964Z,1000.41
2018-09-26T06:37:31.919Z,1000.38
2018-09-26T06:38:31.878Z,1000.35
2018-09-26T06:39:31.835Z,1000.35
2018-09-26T06:40:31.891Z,1000.36
2018-09-26T06:41:31.757Z,1000.38
2018-09-26T06:42:31.724Z,1000.42
2018-09-26T06:43:31.709Z,1000.41
2018-09-26T06:44:31.643Z,1000.45
2018-09-26T06:45:31.605Z,1000.49
2018-09-26T06:46:31.558Z,1000.52
2018-09-26T06:47:31.570Z,1000.47
2018-09-26T06:48:31.483Z,1000.50
2018-09-26T06:49:31.440Z,1000.55
2018-09-26T06:50:31.405Z,1000.54
2018-09-26T06:51:31.362Z,1000.51
2018-09-26T06:52:31.316Z,1000.48
2018-09-26T06:53:31.284Z,1000.45
2018-09-26T06:54:31.241Z,1000.48
2018-09-26T06:55:31.207Z,1000.47
2018-09-26T06:56:31.165Z,1000.51
2018-09-26T06:57:31.123Z,1000.50
2018-09-26T06:58:31.085Z,1000.54
2018-09-26T06:59:31.039Z,1000.53
2018-09-26T07:00:30.999Z,1000.57
2018-09-26T07:01:30.965Z,1000.57
2018-09-26T07:02:30.924Z,1000.55
2018-09-26T07:03:30.887Z,1000.59
2018-09-26T07:04:30.848Z,1000.59
2018-09-26T07:05:30.805Z,1000.60
2018-09-26T07:06:30.768Z,1000.58
2018-09-26T07:07:30.724Z,1000.62
2018-09-26T07:08:30.691Z,1000.63
2018-09-26T07:09:30.648Z,1000.61
2018-09-26T07:10:30.606Z,1000.61
2018-09-26T07:11:30.565Z,1000.59
2018-09-26T07:12:30.526Z,1000.61
2018-09-26T07:13:30.487Z,1000.59
2018-09-26T07:14:30.451Z,1000.59
2018-09-26T07:15:30.432Z,1000.63
2018-09-26T07:16:30.373Z,1000.64
2018-09-26T07:17:30.332Z,1000.63
2018-09-26T07:18:30.289Z,1000.61
2018-09-26T07:19:30.251Z,1000.61
2018-09-26T07:20:30.210Z,1000.61
2018-09-26T07:21:30.171Z,1000.59
2018-09-26T07:22:30.134Z,1000.58
2018-09-26T07:23:30.098Z,1000.62
2018-09-26T07:24:30.051Z,1000.66
2018-09-26T07:25:30.033Z,1000.62
2018-09-26T07:26:29.981Z,1000.62
2018-09-26T07:27:29.940Z,1000.59
2018-09-26T07:28:29.910Z,1000.58
2018-09-26T07:29:29.862Z,1000.61
2018-09-26T07:30:29.817Z,1000.58
2018-09-26T07:31:29.821Z,1000.57
2018-09-26T07:32:29.739Z,1000.57
2018-09-26T07:33:29.700Z,1000.51
2018-09-26T07:34:29.671Z,1000.55
2018-09-26T07:35:29.629Z,1000.54
2018-09-26T07:36:29.589Z,1000.56
2018-09-26T07:37:29.547Z,1000.54
2018-09-26T07:38:29.560Z,1000.58
2018-09-26T07:39:29.465Z,1000.54
2018-09-26T07:40:29.431Z,1000.51
2018-09-26T07:41:29.389Z,1000.44
2018-09-26T07:42:29.352Z,1000.41
2018-09-26T07:43:29.313Z,1000.41
2018-09-26T07:44:29.269Z,1000.41
2018-09-26T07:45:29.300Z,1000.40
2018-09-26T07:46:29.201Z,1000.37
2018-09-26T07:47:29.161Z,1000.34
2018-09-26T07:48:29.122Z,1000.37
2018-09-26T07:49:29.078Z,1000.37
2018-09-26T07:50:29.038Z,1000.38
2018-09-26T07:51:29.002Z,1000.42
2018-09-26T07:52:28.959Z,1000.47
2018-09-26T07:53:28.921Z,1000.48
2018-09-26T07:54:28.916Z,1000.47
2018-09-26T07:55:28.855Z,1000.51
2018-09-26T07:56:28.808Z,1000.49
2018-09-26T07:57:28.768Z,1000.52
2018-09-26T07:58:28.730Z,1000.50
2018-09-26T07:59:28.697Z,1000.53
2018-09-26T08:00:28.672Z,1000.52
2018-09-26T08:01:28.614Z,1000.52
2018-09-26T08:02:28.575Z,1000.48
2018-09-26T08:03:28.536Z,1000.54
2018-09-26T08:04:28.507Z,1000.59
2018-09-26T08:05:28.459Z,1000.60
2018-09-26T08:06:28.422Z,1000.63
2018-09-26T08:07:28.387Z,1000.63
2018-09-26T08:08:28.347Z,1000.63
2018-09-26T08:09:28.307Z,1000.61
2018-09-26T08:10:28.281Z,1000.60
2018-09-26T08:11:28.321Z,1000.65
2018-09-26T08:12:28.193Z,1000.65
2018-09-26T08:13:28.156Z,1000.70
2018-09-26T08:14:28.115Z,1000.74
2018-09-26T08:15:28.075Z,1000.72
2018-09-26T08:16:28.039Z,1000.68
2018-09-26T08:17:28.005Z,1000.71
2018-09-26T08:18:27.981Z,1000.74
2018-09-26T08:19:27.929Z,1000.72
2018-09-26T08:20:27.892Z,1000.70
2018-09-26T08:21:27.851Z,1000.74
2018-09-26T08:22:27.822Z,1000.68
2018-09-26T08:23:27.774Z,1000.70
2018-09-26T08:24:27.732Z,1000.70
2018-09-26T08:25:27.697Z,1000.66
2018-09-26T08:26:27.664Z,1000.72
2018-09-26T08:27:27.624Z,1000.67
2018-09-26T08:28:27.581Z,1000.71
2018-09-26T08:29:27.546Z,1000.65
2018-09-26T08:30:27.509Z,1000.68
2018-09-26T08:31:27.521Z,1000.69
2018-09-26T08:32:27.439Z,1000.66
2018-09-26T08:33:27.395Z,1000.68
2018-09-26T08:34:27.362Z,1000.73
2018-09-26T08:35:27.317Z,1000.66
2018-09-26T08:36:27.281Z,1000.68
2018-09-26T08:37:27.246Z,1000.68
2018-09-26T08:38:27.209Z,1000.73
2018-09-26T08:39:27.174Z,1000.73
2018-09-26T08:40:27.136Z,1000.72
2018-09-26T08:41:27.096Z,1000.76
2018-09-26T08:42:27.056Z,1000.70
2018-09-26T08:43:27.019Z,1000.68
2018-09-26T08:44:26.985Z,1000.67
2018-09-26T08:45:26.949Z,1000.70
2018-09-26T08:46:26.907Z,1000.75
2018-09-26T08:47:26.869Z,1000.74
2018-09-26T08:48:26.830Z,1000.73
2018-09-26T08:49:26.796Z,1000.76
2018-09-26T08:50:26.761Z,1000.71
2018-09-26T08:51:26.726Z,1000.70
2018-09-26T08:52:26.690Z,1000.75
2018-09-26T08:53:26.651Z,1000.78
2018-09-26T08:54:26.610Z,1000.77
2018-09-26T08:55:26.570Z,1000.79
2018-09-26T08:56:26.536Z,1000.78
2018-09-26T08:57:26.499Z,1000.76
2018-09-26T08:58:26.465Z,1000.76
2018-09-26T08:59:28.008Z,1000.79
2018-09-26T09:00:26.384Z,1000.78
2018-09-26T09:01:26.352Z,1000.80
2018-09-26T09:02:26.317Z,1000.80
2018-09-26T09:03:26.280Z,1000.79
2018-09-26T09:04:26.246Z,1000.76
2018-09-26T09:05:26.208Z,1000.75
2018-09-26T09:06:26.167Z,1000.79
2018-09-26T09:07:26.129Z,1000.80
2018-09-26T09:08:26.093Z,1000.81
2018-09-26T09:09:26.055Z,1000.80
2018-09-26T09:10:26.023Z,1000.81
2018-09-26T09:11:25.989Z,1000.84
2018-09-26T09:12:25.948Z,1000.84
2018-09-26T09:13:25.909Z,1000.91
2018-09-26T09:14:25.994Z,1000.88
2018-09-26T09:15:25.836Z,1000.89
2018-09-26T09:16:25.804Z,1000.90
2018-09-26T09:17:25.764Z,1000.85
2018-09-26T09:18:25.724Z,1000.87
2018-09-26T09:19:25.688Z,1000.82
2018-09-26T09:20:25.650Z,1000.84
2018-09-26T09:21:25.619Z,1000.84
2018-09-26T09:22:25.583Z,1000.85
2018-09-26T09:23:25.548Z,1000.84
2018-09-26T09:24:25.514Z,1000.80
2018-09-26T09:25:25.473Z,1000.81
2018-09-26T09:26:25.433Z,1000.79
2018-09-26T09:27:25.405Z,1000.82
2018-09-26T09:28:25.362Z,1000.83
2018-09-26T09:29:25.326Z,1000.80
2018-09-26T09:30:25.289Z,1000.80
2018-09-26T09:31:25.253Z,1000.79
2018-09-26T09:32:25.368Z,1000.80
2018-09-26T09:33:25.180Z,1000.80
2018-09-26T09:34:25.148Z,1000.82
2018-09-26T09:35:25.114Z,1000.81
2018-09-26T09:36:25.125Z,1000.83
2018-09-26T09:37:25.034Z,1000.83
2018-09-26T09:38:25.017Z,1000.84
2018-09-26T09:39:24.958Z,1000.84
2018-09-26T09:40:24.921Z,1000.85
2018-09-26T09:41:24.895Z,1000.80
2018-09-26T09:42:24.852Z,1000.80
2018-09-26T09:43:24.818Z,1000.77
2018-09-26T09:44:24.839Z,1000.78
2018-09-26T09:45:24.742Z,1000.80
2018-09-26T09:46:24.710Z,1000.77
2018-09-26T09:47:24.671Z,1000.77
2018-09-26T09:50:03.553Z,1000.78
2018-09-26T09:50:57.490Z,1000.77
2018-09-26T09:51:57.458Z,1000.77
2018-09-26T09:52:57.422Z,1000.81
2018-09-26T09:53:57.382Z,1000.79
2018-09-26T09:54:57.344Z,1000.78
2018-09-26T09:55:57.309Z,1000.77
2018-09-26T09:56:57.273Z,1000.72
2018-09-26T09:57:57.243Z,1000.75
2018-09-26T09:58:57.210Z,1000.74
2018-09-26T09:59:57.167Z,1000.75
2018-09-26T10:00:57.134Z,1000.76
2018-09-26T10:01:57.096Z,1000.73
2018-09-26T10:02:57.163Z,1000.72
2018-09-26T10:03:57.026Z,1000.69
2018-09-26T10:04:56.992Z,1000.69
2018-09-26T10:05:56.952Z,1000.73
2018-09-26T10:20:56.181Z,1000.62
2018-09-26T10:21:56.098Z,1000.59
2018-09-26T10:22:56.058Z,1000.63
2018-09-26T10:23:56.019Z,1000.64
2018-09-26T10:24:55.979Z,1000.65
2018-09-26T10:25:55.941Z,1000.64
2018-09-26T10:26:55.899Z,1000.59
2018-09-26T10:27:55.858Z,1000.61
2018-09-26T10:28:55.825Z,1000.55
2018-09-26T10:29:55.790Z,1000.55
2018-09-26T10:30:55.743Z,1000.57
2018-09-26T10:31:55.712Z,1000.59
2018-09-26T10:32:55.682Z,1000.59
2018-09-26T10:33:55.634Z,1000.61
2018-09-26T10:34:55.646Z,1000.62
2018-09-26T10:35:55.564Z,1000.63
2018-09-26T10:36:55.532Z,1000.63
2018-09-26T10:37:55.492Z,1000.58
2018-09-26T10:38:55.466Z,1000.58
2018-09-26T10:39:55.416Z,1000.57
2018-09-26T10:40:55.426Z,1000.60
2018-09-26T10:41:55.345Z,1000.58
2018-09-26T10:42:55.312Z,1000.59
2018-09-26T10:43:55.284Z,1000.61
2018-09-26T10:44:55.237Z,1000.58
2018-09-26T10:45:55.202Z,1000.57
2018-09-26T10:46:55.168Z,1000.56
2018-09-26T10:47:55.137Z,1000.56
2018-09-26T10:48:55.098Z,1000.59
2018-09-26T10:49:55.060Z,1000.55
2018-09-26T10:50:55.021Z,1000.56
2018-09-26T10:51:54.988Z,1000.60
2018-09-26T10:52:54.955Z,1000.57
2018-09-26T10:53:54.922Z,1000.59
2018-09-26T10:54:54.883Z,1000.58
2018-09-26T10:55:54.854Z,1000.62
2018-09-26T10:56:54.820Z,1000.62
2018-09-26T10:57:54.778Z,1000.60
2018-09-26T10:58:54.740Z,1000.62
2018-09-26T10:59:54.704Z,1000.60
2018-09-26T11:00:54.690Z,1000.60
2018-09-26T11:01:54.654Z,1000.58
2018-09-26T11:02:54.598Z,1000.58
2018-09-26T11:03:54.561Z,1000.62
2018-09-26T11:04:54.535Z,1000.59
2018-09-26T11:05:54.500Z,1000.59
2018-09-26T11:06:54.459Z,1000.61
2018-09-26T11:07:54.426Z,1000.62
2018-09-26T11:08:54.392Z,1000.60
2018-09-26T11:09:54.357Z,1000.59
2018-09-26T11:10:54.319Z,1000.60
2018-09-26T11:11:54.280Z,1000.62
2018-09-26T11:12:54.249Z,1000.65
2018-09-26T11:13:54.213Z,1000.64
2018-09-26T11:14:54.181Z,1000.65
2018-09-26T11:15:54.150Z,1000.65
2018-09-26T11:16:54.105Z,1000.64
2018-09-26T11:17:54.081Z,1000.61
2018-09-26T11:18:54.111Z,1000.63
2018-09-26T11:19:54.011Z,1000.62
2018-09-26T11:20:53.975Z,1000.60
2018-09-26T11:21:53.934Z,1000.61
2018-09-26T11:22:53.896Z,1000.61
2018-09-26T11:23:53.862Z,1000.59
2018-09-26T11:24:53.824Z,1000.62
2018-09-26T11:25:53.797Z,1000.57
2018-09-26T11:26:53.759Z,1000.55
2018-09-26T11:27:53.728Z,1000.54
2018-09-26T11:28:53.693Z,1000.53
2018-09-26T11:29:53.654Z,1000.54
2018-09-26T11:30:53.617Z,1000.53
2018-09-26T11:31:53.581Z,1000.51
2018-09-26T11:32:53.555Z,1000.55
2018-09-26T11:33:53.615Z,1000.53
2018-09-26T11:34:53.478Z,1000.51
2018-09-26T11:35:53.441Z,1000.50
2018-09-26T11:36:53.410Z,1000.50
2018-09-26T11:37:53.408Z,1000.53
2018-09-26T11:38:53.358Z,1000.51
2018-09-26T11:39:53.334Z,1000.50
2018-09-26T11:40:53.274Z,1000.52
2018-09-26T11:41:53.244Z,1000.47
2018-09-26T11:42:53.206Z,1000.45
2018-09-26T11:43:53.170Z,1000.45
2018-09-26T11:44:53.159Z,1000.47
2018-09-26T11:45:53.096Z,1000.44
2018-09-26T11:46:53.070Z,1000.43
2018-09-26T11:47:53.036Z,1000.43
2018-09-26T11:48:52.996Z,1000.38
2018-09-26T11:49:52.956Z,1000.40
2018-09-26T11:50:52.925Z,1000.35
2018-09-26T11:51:52.898Z,1000.37
2018-09-26T11:52:52.861Z,1000.34
2018-09-26T11:53:52.825Z,1000.36
2018-09-26T11:54:52.785Z,1000.38
2018-09-26T11:55:52.753Z,1000.33
2018-09-26T11:56:52.715Z,1000.33
2018-09-26T11:57:52.689Z,1000.33
2018-09-26T11:58:52.650Z,1000.31
2018-09-26T11:59:52.617Z,1000.29
2018-09-26T12:00:52.587Z,1000.26
2018-09-26T12:01:52.546Z,1000.24
2018-09-26T12:02:52.513Z,1000.23
2018-09-26T12:03:52.474Z,1000.21
2018-09-26T12:04:52.442Z,1000.19
2018-09-26T12:05:52.408Z,1000.18
2018-09-26T12:06:52.369Z,1000.19
2018-09-26T12:07:52.360Z,1000.17
2018-09-26T12:08:52.302Z,1000.17
2018-09-26T12:09:52.266Z,1000.13
2018-09-26T12:10:52.237Z,1000.08
2018-09-26T12:11:52.201Z,1000.06
2018-09-26T12:12:52.174Z,1000.07
2018-09-26T12:13:52.188Z,1000.03
2018-09-26T12:14:52.094Z,1000.04
2018-09-26T12:15:52.056Z,1000.05
2018-09-26T12:16:52.022Z,999.98
2018-09-26T12:17:51.990Z,999.98
2018-09-26T12:18:51.958Z,999.95
2018-09-26T12:19:51.927Z,999.93
2018-09-26T12:20:51.884Z,999.92
2018-09-26T12:21:51.912Z,999.93
2018-09-26T12:22:51.825Z,999.90
2018-09-26T12:23:51.792Z,999.90
2018-09-26T12:24:51.754Z,999.94
2018-09-26T12:25:51.718Z,999.91
2018-09-26T12:26:51.679Z,999.89
2018-09-26T12:27:51.692Z,999.85
2018-09-26T12:28:51.612Z,999.81
2018-09-26T12:29:51.578Z,999.78
2018-09-26T12:30:51.543Z,999.82
2018-09-26T12:31:51.511Z,999.81
2018-09-26T12:32:51.478Z,999.84
2018-09-26T12:33:51.442Z,999.81
2018-09-26T12:34:51.421Z,999.81